createdAt,value
2018-12-24T00:00:15.468Z,97.17
2018-12-24T00:01:15.456Z,97.07
2018-12-24T00:02:15.446Z,96.86
2018-12-24T00:03:15.457Z,97.28
2018-12-24T00:04:15.642Z,97.49
2018-12-24T00:05:15.422Z,97.07
2018-12-24T00:06:15.414Z,96.45
2018-12-24T00:07:15.391Z,96.34
2018-12-24T00:08:15.387Z,96.34
2018-12-24T00:09:15.399Z,96.03
2018-12-24T00:10:15.364Z,95.94
2018-12-24T00:11:15.369Z,95.83
2018-12-24T00:12:15.350Z,96.03
2018-12-24T00:13:15.333Z,96.45
2018-12-24T00:14:15.356Z,95.99
2018-12-24T00:15:15.308Z,96.24
2018-12-24T00:16:15.307Z,95.94
2018-12-24T00:17:15.286Z,95.94
2018-12-24T00:18:15.278Z,95.78
2018-12-24T00:19:15.298Z,95.83
2018-12-24T00:20:15.351Z,95.78
2018-12-24T00:21:15.246Z,95.78
2018-12-24T00:22:15.246Z,95.68
2018-12-24T00:23:15.226Z,95.48
2018-12-24T00:24:15.248Z,95.68
2018-12-24T00:25:15.204Z,95.89
2018-12-24T00:26:15.196Z,95.68
2018-12-24T00:27:15.180Z,95.78
2018-12-24T00:28:15.178Z,95.57
2018-12-24T00:29:15.164Z,95.68
2018-12-24T00:30:15.171Z,95.78
2018-12-24T00:31:15.136Z,95.68
2018-12-24T00:32:15.136Z,96.30
2018-12-24T00:33:15.116Z,95.99
2018-12-24T00:34:15.222Z,96.09
2018-12-24T00:35:15.121Z,95.68
2018-12-24T00:36:15.099Z,95.83
2018-12-24T00:37:15.079Z,95.94
2018-12-24T00:38:15.067Z,95.62
2018-12-24T00:39:15.064Z,96.14
2018-12-24T00:40:15.076Z,95.83
2018-12-24T00:41:15.037Z,95.83
2018-12-24T00:42:15.985Z,95.52
2018-12-24T00:43:15.010Z,95.73
2018-12-24T00:44:14.998Z,94.69
2018-12-24T00:45:15.006Z,94.38
2018-12-24T00:46:14.978Z,94.07
2018-12-24T00:47:14.968Z,93.97
2018-12-24T00:48:14.956Z,93.76
2018-12-24T00:49:14.953Z,93.39
2018-12-24T00:50:15.062Z,92.97
2018-12-24T00:51:14.929Z,93.49
2018-12-24T00:52:14.922Z,93.29
2018-12-24T00:53:14.908Z,93.60
2018-12-24T00:54:14.895Z,92.97
2018-12-24T00:55:14.920Z,93.39
2018-12-24T00:56:14.874Z,92.91
2018-12-24T00:57:14.867Z,92.91
2018-12-24T00:58:14.853Z,92.50
2018-12-24T00:59:14.845Z,93.33
2018-12-24T01:00:14.863Z,93.02
2018-12-24T01:01:14.821Z,91.88
2018-12-24T01:02:14.816Z,91.47
2018-12-24T01:03:14.807Z,91.36
2018-12-24T01:04:14.791Z,91.05
2018-12-24T01:05:14.792Z,90.84
2018-12-24T01:06:14.768Z,91.09
2018-12-24T01:07:14.760Z,91.41
2018-12-24T01:08:14.743Z,91.82
2018-12-24T01:09:14.736Z,91.09
2018-12-24T01:10:14.756Z,90.99
2018-12-24T01:11:14.717Z,91.61
2018-12-24T01:12:14.702Z,91.86
2018-12-24T01:13:14.692Z,92.69
2018-12-24T01:14:14.687Z,91.82
2018-12-24T01:15:14.670Z,91.55
2018-12-24T01:16:14.683Z,91.35
2018-12-24T01:17:14.653Z,91.09
2018-12-24T01:18:14.641Z,91.03
2018-12-24T01:19:14.625Z,91.03
2018-12-24T01:20:14.626Z,91.14
2018-12-24T01:21:14.643Z,91.76
2018-12-24T01:22:14.596Z,91.24
2018-12-24T01:23:14.593Z,91.03
2018-12-24T01:24:14.576Z,91.35
2018-12-24T01:25:14.565Z,91.45
2018-12-24T01:26:14.575Z,90.72
2018-12-24T01:27:14.544Z,90.31
2018-12-24T01:28:14.530Z,90.31
2018-12-24T01:29:14.523Z,90.72
2018-12-24T01:30:14.509Z,90.83
2018-12-24T01:31:14.520Z,90.31
2018-12-24T01:32:14.501Z,89.52
2018-12-24T01:33:14.476Z,89.38
2018-12-24T01:34:14.473Z,89.42
2018-12-24T01:35:14.455Z,90.14
2018-12-24T01:36:14.475Z,90.72
2018-12-24T01:37:14.439Z,90.83
2018-12-24T01:38:14.437Z,90.62
2018-12-24T01:39:14.412Z,90.66
2018-12-24T01:40:14.419Z,90.66
2018-12-24T01:41:14.533Z,89.69
2018-12-24T01:42:14.380Z,90.45
2018-12-24T01:43:14.372Z,90.72
2018-12-24T01:44:14.364Z,89.79
2018-12-24T01:45:14.354Z,89.21
2018-12-24T01:46:14.359Z,89.42
2018-12-24T01:47:14.341Z,88.90
2018-12-24T01:48:14.322Z,89.83
2018-12-24T01:49:14.314Z,89.52
2018-12-24T01:50:14.298Z,90.35
2018-12-24T01:51:14.319Z,90.77
2018-12-24T01:52:14.274Z,90.56
2018-12-24T01:53:14.268Z,90.35
2018-12-24T01:54:14.258Z,90.45
2018-12-24T01:55:14.258Z,90.45
2018-12-24T01:56:14.271Z,90.97
2018-12-24T01:57:14.221Z,90.87
2018-12-24T01:58:14.233Z,91.08
2018-12-24T01:59:14.198Z,90.77
2018-12-24T02:00:14.196Z,90.56
2018-12-24T02:01:14.207Z,90.70
2018-12-24T02:02:14.174Z,90.50
2018-12-24T02:03:14.159Z,90.50
2018-12-24T02:04:14.154Z,91.02
2018-12-24T02:05:14.138Z,91.12
2018-12-24T02:06:14.133Z,91.16
2018-12-24T02:07:14.138Z,90.50
2018-12-24T02:08:14.107Z,90.85
2018-12-24T02:09:14.097Z,90.70
2018-12-24T02:10:14.098Z,91.02
2018-12-24T02:11:14.075Z,91.02
2018-12-24T02:12:14.128Z,90.95
2018-12-24T02:13:14.055Z,91.02
2018-12-24T02:14:14.043Z,91.06
2018-12-24T02:15:14.033Z,91.02
2018-12-24T02:16:14.021Z,90.64
2018-12-24T02:17:14.037Z,90.85
2018-12-24T02:18:14.009Z,90.12
2018-12-24T02:19:13.991Z,89.77
2018-12-24T02:20:13.983Z,89.87
2018-12-24T02:21:13.970Z,90.19
2018-12-24T02:22:14.058Z,90.08
2018-12-24T02:23:13.948Z,89.98
2018-12-24T02:24:13.937Z,89.77
2018-12-24T02:25:13.932Z,89.36
2018-12-24T02:26:13.917Z,88.88
2018-12-24T02:27:13.929Z,88.73
2018-12-24T02:28:13.895Z,89.19
2018-12-24T02:29:13.897Z,89.09
2018-12-24T02:30:13.875Z,89.25
2018-12-24T02:31:13.865Z,89.67
2018-12-24T02:32:13.886Z,89.56
2018-12-24T02:33:13.843Z,89.71
2018-12-24T02:34:13.842Z,89.81
2018-12-24T02:35:13.847Z,90.85
2018-12-24T02:36:13.811Z,90.85
2018-12-24T02:37:13.812Z,90.54
2018-12-24T02:38:13.789Z,89.81
2018-12-24T02:39:13.789Z,90.02
2018-12-24T02:40:13.764Z,89.29
2018-12-24T02:41:13.766Z,90.12
2018-12-24T02:42:13.771Z,89.29
2018-12-24T02:43:13.735Z,89.40
2018-12-24T02:44:13.739Z,89.71
2018-12-24T02:45:13.740Z,89.50
2018-12-24T02:46:13.709Z,89.61
2018-12-24T02:47:13.730Z,89.40
2018-12-24T02:48:13.695Z,89.50
2018-12-24T02:49:13.673Z,90.85
2018-12-24T02:50:13.666Z,89.40
2018-12-24T02:51:13.655Z,89.71
2018-12-24T02:52:13.647Z,90.23
2018-12-24T02:53:13.662Z,90.12
2018-12-24T02:54:13.622Z,89.71
2018-12-24T02:55:13.620Z,89.81
2018-12-24T02:56:13.604Z,90.02
2018-12-24T02:57:13.589Z,90.33
2018-12-24T02:58:13.599Z,89.09
2018-12-24T02:59:13.567Z,88.98
2018-12-24T03:00:13.564Z,88.57
2018-12-24T03:01:13.544Z,87.74
2018-12-24T03:02:13.546Z,87.01
2018-12-24T03:03:13.554Z,88.15
2018-12-24T03:04:13.517Z,87.01
2018-12-24T03:05:13.507Z,87.84
2018-12-24T03:06:13.498Z,87.95
2018-12-24T03:07:13.485Z,86.91
2018-12-24T03:08:13.489Z,87.05
2018-12-24T03:09:13.462Z,87.01
2018-12-24T03:10:13.463Z,87.16
2018-12-24T03:11:13.473Z,86.85
2018-12-24T03:12:13.435Z,86.95
2018-12-24T03:13:13.453Z,86.74
2018-12-24T03:14:13.428Z,87.05
2018-12-24T03:15:13.401Z,86.99
2018-12-24T03:16:13.393Z,86.95
2018-12-24T03:17:13.379Z,87.16
2018-12-24T03:18:13.490Z,86.95
2018-12-24T03:19:13.363Z,87.09
2018-12-24T03:20:13.349Z,87.40
2018-12-24T03:21:13.343Z,87.71
2018-12-24T03:22:13.341Z,87.82
2018-12-24T03:23:13.559Z,89.03
2018-12-24T03:24:13.304Z,88.02
2018-12-24T03:25:13.306Z,88.13
2018-12-24T03:26:13.306Z,87.47
2018-12-24T03:27:13.297Z,88.20
2018-12-24T03:28:13.289Z,88.20
2018-12-24T03:29:13.252Z,87.68
2018-12-24T03:30:13.241Z,88.40
2018-12-24T03:31:13.255Z,87.82
2018-12-24T03:32:13.239Z,88.23
2018-12-24T03:33:13.231Z,89.27
2018-12-24T03:34:13.198Z,88.85
2018-12-24T03:35:13.194Z,88.85
2018-12-24T03:36:13.179Z,87.88
2018-12-24T03:37:13.178Z,88.02
2018-12-24T03:38:13.187Z,87.26
2018-12-24T03:39:13.154Z,87.82
2018-12-24T03:40:13.143Z,88.13
2018-12-24T03:41:13.129Z,87.78
2018-12-24T03:42:13.120Z,87.30
2018-12-24T03:43:13.274Z,87.09
2018-12-24T03:44:13.097Z,86.99
2018-12-24T03:45:13.098Z,87.05
2018-12-24T03:46:13.071Z,88.23
2018-12-24T03:47:13.067Z,87.05
2018-12-24T03:48:13.077Z,87.05
2018-12-24T03:49:13.047Z,86.85
2018-12-24T03:50:13.037Z,86.74
2018-12-24T03:51:13.025Z,86.74
2018-12-24T03:52:13.011Z,87.16
2018-12-24T03:53:13.020Z,86.95
2018-12-24T03:54:13.027Z,87.05
2018-12-24T03:55:12.982Z,87.16
2018-12-24T03:56:12.975Z,86.85
2018-12-24T03:57:12.957Z,86.43
2018-12-24T03:58:12.958Z,86.54
2018-12-24T03:59:12.971Z,87.05
2018-12-24T04:00:12.930Z,86.78
2018-12-24T04:01:12.954Z,86.78
2018-12-24T04:02:12.905Z,86.85
2018-12-24T04:03:12.896Z,87.68
2018-12-24T04:04:12.913Z,87.57
2018-12-24T04:05:12.879Z,87.71
2018-12-24T04:06:12.872Z,87.68
2018-12-24T04:07:12.867Z,87.82
2018-12-24T04:08:12.845Z,87.88
2018-12-24T04:09:12.853Z,88.02
2018-12-24T04:10:12.825Z,88.54
2018-12-24T04:11:12.814Z,89.27
2018-12-24T04:12:12.809Z,88.85
2018-12-24T04:13:22.142Z,88.85
2018-12-24T04:14:13.796Z,89.17
2018-12-24T04:15:12.772Z,88.85
2018-12-24T04:16:12.759Z,89.21
2018-12-24T04:17:12.750Z,88.96
2018-12-24T04:18:12.741Z,89.48
2018-12-24T04:19:12.749Z,89.17
2018-12-24T04:20:12.726Z,89.17
2018-12-24T04:21:12.704Z,88.96
2018-12-24T04:22:12.697Z,87.96
2018-12-24T04:23:12.687Z,88.28
2018-12-24T04:24:12.695Z,87.45
2018-12-24T04:25:12.692Z,87.86
2018-12-24T04:26:12.653Z,88.07
2018-12-24T04:27:12.643Z,88.48
2018-12-24T04:28:12.633Z,87.24
2018-12-24T04:29:12.658Z,87.13
2018-12-24T04:30:12.615Z,87.03
2018-12-24T04:31:12.617Z,87.03
2018-12-24T04:32:12.601Z,87.76
2018-12-24T04:33:12.583Z,88.07
2018-12-24T04:34:12.585Z,88.62
2018-12-24T04:35:12.564Z,89.21
2018-12-24T04:36:12.561Z,89.67
2018-12-24T04:37:12.542Z,89.31
2018-12-24T04:38:12.530Z,89.25
2018-12-24T04:39:12.533Z,89.11
2018-12-24T04:40:12.515Z,89.56
2018-12-24T04:41:12.500Z,89.25
2018-12-24T04:42:12.496Z,89.25
2018-12-24T04:43:12.482Z,89.25
2018-12-24T04:44:12.489Z,89.15
2018-12-24T04:45:12.453Z,89.87
2018-12-24T04:46:12.473Z,90.08
2018-12-24T04:47:12.434Z,91.02
2018-12-24T04:48:12.432Z,89.46
2018-12-24T04:49:12.450Z,89.39
2018-12-24T04:50:12.404Z,89.39
2018-12-24T04:51:12.388Z,89.29
2018-12-24T04:52:12.378Z,89.46
2018-12-24T04:53:12.378Z,89.18
2018-12-24T04:54:12.380Z,88.31
2018-12-24T04:55:12.355Z,88.62
2018-12-24T04:56:12.338Z,87.90
2018-12-24T04:57:12.329Z,87.90
2018-12-24T04:58:12.354Z,88.04
2018-12-24T04:59:12.322Z,87.84
2018-12-24T05:00:12.317Z,87.69
2018-12-24T05:01:12.280Z,87.84
2018-12-24T05:02:12.277Z,88.10
2018-12-24T05:03:12.262Z,87.17
2018-12-24T05:04:12.255Z,86.96
2018-12-24T05:05:12.258Z,86.96
2018-12-24T05:06:12.245Z,86.49
2018-12-24T05:07:12.222Z,87.01
2018-12-24T05:08:12.211Z,87.01
2018-12-24T05:09:12.198Z,86.80
2018-12-24T05:10:12.216Z,87.21
2018-12-24T05:11:12.183Z,87.32
2018-12-24T05:12:12.168Z,88.04
2018-12-24T05:13:12.165Z,87.94
2018-12-24T05:14:12.150Z,87.63
2018-12-24T05:15:12.158Z,87.21
2018-12-24T05:16:12.127Z,87.11
2018-12-24T05:17:12.120Z,87.01
2018-12-24T05:18:12.118Z,87.01
2018-12-24T05:19:12.094Z,86.90
2018-12-24T05:20:12.103Z,87.11
2018-12-24T05:21:12.072Z,87.25
2018-12-24T05:22:12.070Z,87.46
2018-12-24T05:23:12.067Z,87.32
2018-12-24T05:24:12.047Z,86.94
2018-12-24T05:25:12.053Z,86.90
2018-12-24T05:26:12.017Z,87.15
2018-12-24T05:27:12.008Z,87.04
2018-12-24T05:28:12.005Z,87.15
2018-12-24T05:29:11.995Z,87.15
2018-12-24T05:30:12.003Z,87.35
2018-12-24T05:31:11.991Z,87.32
2018-12-24T05:32:11.991Z,87.25
2018-12-24T05:33:11.950Z,87.35
2018-12-24T05:34:11.945Z,87.19
2018-12-24T05:35:11.949Z,86.98
2018-12-24T05:36:11.918Z,87.19
2018-12-24T05:37:11.903Z,87.25
2018-12-24T05:38:11.893Z,87.50
2018-12-24T05:39:11.900Z,88.64
2018-12-24T05:40:11.887Z,87.25
2018-12-24T05:41:11.878Z,88.23
2018-12-24T05:42:11.850Z,87.60
2018-12-24T05:43:11.844Z,87.81
2018-12-24T05:44:11.828Z,88.12
2018-12-24T05:45:11.846Z,87.66
2018-12-24T05:46:11.816Z,87.92
2018-12-24T05:47:11.812Z,87.19
2018-12-24T05:48:11.786Z,86.88
2018-12-24T05:49:11.778Z,87.19
2018-12-24T05:50:11.771Z,87.29
2018-12-24T05:51:11.784Z,87.23
2018-12-24T05:52:11.751Z,87.65
2018-12-24T05:53:11.730Z,88.06
2018-12-24T05:54:11.722Z,88.27
2018-12-24T05:55:11.714Z,88.37
2018-12-24T05:56:11.718Z,88.37
2018-12-24T05:57:11.693Z,88.06
2018-12-24T05:58:11.690Z,88.17
2018-12-24T05:59:11.671Z,87.23
2018-12-24T06:00:11.660Z,87.37
2018-12-24T06:01:11.668Z,87.37
2018-12-24T06:02:11.642Z,87.89
2018-12-24T06:03:11.632Z,88.06
2018-12-24T06:04:11.631Z,88.52
2018-12-24T06:05:11.608Z,88.45
2018-12-24T06:06:11.613Z,88.42
2018-12-24T06:07:11.591Z,87.93
2018-12-24T06:08:11.593Z,88.14
2018-12-24T06:09:11.577Z,88.35
2018-12-24T06:10:11.573Z,88.35
2018-12-24T06:11:11.577Z,87.30
2018-12-24T06:12:11.638Z,87.10
2018-12-24T06:13:11.529Z,87.20
2018-12-24T06:14:11.515Z,87.20
2018-12-24T06:15:11.537Z,87.30
2018-12-24T06:16:11.530Z,87.10
2018-12-24T06:17:11.481Z,86.68
2018-12-24T06:18:11.479Z,86.16
2018-12-24T06:19:11.475Z,86.06
2018-12-24T06:20:11.455Z,85.85
2018-12-24T06:21:11.464Z,85.53
2018-12-24T06:22:11.447Z,85.96
2018-12-24T06:23:11.421Z,85.53
2018-12-24T06:24:11.415Z,84.91
2018-12-24T06:25:11.403Z,84.08
2018-12-24T06:26:11.416Z,83.14
2018-12-24T06:27:11.392Z,83.14
2018-12-24T06:28:11.381Z,83.42
2018-12-24T06:29:11.354Z,83.25
2018-12-24T06:30:11.346Z,82.31
2018-12-24T06:31:11.339Z,82.51
2018-12-24T06:32:11.353Z,82.41
2018-12-24T06:33:11.334Z,82.31
2018-12-24T06:34:11.303Z,82.62
2018-12-24T06:35:11.297Z,83.04
2018-12-24T06:36:11.291Z,82.10
2018-12-24T06:37:11.287Z,81.47
2018-12-24T06:38:11.265Z,81.68
2018-12-24T06:39:11.267Z,81.68
2018-12-24T06:40:11.239Z,81.58
2018-12-24T06:41:11.233Z,81.85
2018-12-24T06:42:11.235Z,80.29
2018-12-24T06:43:11.219Z,79.25
2018-12-24T06:44:11.201Z,79.98
2018-12-24T06:45:11.195Z,78.83
2018-12-24T06:46:11.180Z,79.18
2018-12-24T06:47:11.181Z,79.39
2018-12-24T06:48:11.159Z,79.18
2018-12-24T06:49:11.161Z,79.49
2018-12-24T06:50:11.147Z,78.87
2018-12-24T06:51:11.121Z,78.97
2018-12-24T06:52:11.148Z,79.80
2018-12-24T06:53:11.106Z,81.16
2018-12-24T06:54:11.099Z,81.16
2018-12-24T06:55:11.101Z,81.26
2018-12-24T06:56:11.077Z,80.85
2018-12-24T06:57:11.085Z,80.74
2018-12-24T06:58:11.051Z,80.54
2018-12-24T06:59:11.040Z,81.68
2018-12-24T07:00:11.033Z,82.10
2018-12-24T07:01:11.027Z,82.45
2018-12-24T07:02:11.036Z,82.10
2018-12-24T07:03:11.009Z,81.93
2018-12-24T07:04:10.985Z,82.10
2018-12-24T07:05:10.980Z,82.31
2018-12-24T07:06:10.971Z,83.35
2018-12-24T07:07:10.978Z,82.20
2018-12-24T07:08:10.957Z,83.04
2018-12-24T07:09:10.945Z,82.34
2018-12-24T07:10:10.927Z,82.62
2018-12-24T07:11:10.911Z,83.25
2018-12-24T07:12:10.935Z,83.14
2018-12-24T07:13:10.897Z,83.39
2018-12-24T07:14:15.408Z,82.65
2018-12-24T07:15:10.872Z,82.45
2018-12-24T07:16:10.861Z,83.59
2018-12-24T07:17:10.852Z,84.12
2018-12-24T07:18:10.870Z,84.08
2018-12-24T07:19:10.834Z,84.60
2018-12-24T07:20:10.831Z,84.53
2018-12-24T07:21:10.821Z,84.43
2018-12-24T07:22:10.798Z,85.47
2018-12-24T07:23:10.809Z,85.36
2018-12-24T07:24:10.783Z,85.16
2018-12-24T07:25:10.771Z,85.12
2018-12-24T07:26:10.756Z,85.33
2018-12-24T07:27:10.749Z,84.81
2018-12-24T07:28:10.753Z,85.12
2018-12-24T07:29:10.727Z,85.43
2018-12-24T07:30:10.724Z,85.53
2018-12-24T07:31:10.711Z,86.10
2018-12-24T07:32:10.714Z,85.85
2018-12-24T07:33:10.704Z,85.74
2018-12-24T07:34:10.674Z,85.74
2018-12-24T07:35:10.667Z,85.99
2018-12-24T07:36:10.654Z,85.53
2018-12-24T07:37:10.649Z,85.85
2018-12-24T07:38:10.656Z,85.33
2018-12-24T07:39:10.619Z,85.47
2018-12-24T07:40:10.614Z,85.68
2018-12-24T07:41:10.607Z,86.10
2018-12-24T07:42:10.593Z,86.35
2018-12-24T07:43:10.607Z,86.97
2018-12-24T07:44:10.576Z,87.43
2018-12-24T07:45:10.559Z,88.06
2018-12-24T07:46:10.544Z,88.68
2018-12-24T07:47:10.535Z,89.58
2018-12-24T07:48:10.547Z,90.14
2018-12-24T07:49:10.522Z,90.56
2018-12-24T07:50:10.509Z,89.41
2018-12-24T07:51:10.489Z,89.10
2018-12-24T07:52:10.485Z,89.31
2018-12-24T07:53:10.501Z,88.57
2018-12-24T07:54:10.467Z,88.16
2018-12-24T07:55:10.462Z,88.47
2018-12-24T07:56:10.451Z,88.89
2018-12-24T07:57:10.427Z,87.63
2018-12-24T07:58:10.448Z,86.38
2018-12-24T07:59:10.410Z,86.07
2018-12-24T08:00:10.403Z,86.38
2018-12-24T08:01:10.393Z,85.65
2018-12-24T08:02:10.387Z,85.97
2018-12-24T08:03:10.373Z,85.65
2018-12-24T08:04:10.376Z,85.44
2018-12-24T08:05:10.346Z,84.78
2018-12-24T08:06:10.336Z,84.92
2018-12-24T08:07:10.333Z,85.03
2018-12-24T08:08:10.337Z,85.13
2018-12-24T08:09:10.319Z,85.65
2018-12-24T08:10:10.302Z,85.86
2018-12-24T08:11:10.294Z,85.13
2018-12-24T08:12:10.274Z,84.72
2018-12-24T08:13:10.266Z,84.09
2018-12-24T08:14:10.281Z,84.40
2018-12-24T08:15:10.240Z,83.78
2018-12-24T08:16:10.239Z,83.78
2018-12-24T08:17:10.219Z,85.03
2018-12-24T08:18:10.222Z,84.82
2018-12-24T08:19:10.219Z,85.03
2018-12-24T08:20:10.191Z,86.49
2018-12-24T08:21:10.181Z,86.80
2018-12-24T08:22:10.173Z,86.38
2018-12-24T08:23:10.158Z,85.59
2018-12-24T08:24:10.176Z,85.83
2018-12-24T08:25:10.171Z,85.73
2018-12-24T08:26:10.133Z,85.94
2018-12-24T08:27:10.115Z,85.83
2018-12-24T08:28:10.106Z,85.94
2018-12-24T08:29:10.103Z,85.83
2018-12-24T08:30:10.108Z,85.83
2018-12-24T08:31:10.079Z,85.21
2018-12-24T08:32:11.486Z,85.73
2018-12-24T08:33:10.057Z,85.59
2018-12-24T08:34:10.042Z,85.52
2018-12-24T08:35:10.055Z,84.17
2018-12-24T08:36:10.021Z,84.38
2018-12-24T08:37:10.015Z,84.48
2018-12-24T08:38:10.003Z,84.27
2018-12-24T08:39:09.994Z,83.85
2018-12-24T08:40:10.002Z,83.54
2018-12-24T08:41:09.982Z,84.06
2018-12-24T08:42:09.959Z,83.54
2018-12-24T08:43:09.959Z,82.70
2018-12-24T08:44:09.938Z,82.07
2018-12-24T08:45:09.947Z,81.83
2018-12-24T08:46:09.921Z,81.10
2018-12-24T08:47:09.912Z,81.24
2018-12-24T08:48:09.901Z,81.73
2018-12-24T08:49:09.898Z,80.79
2018-12-24T08:50:09.915Z,81.10
2018-12-24T08:51:09.870Z,80.58
2018-12-24T08:52:09.854Z,79.43
2018-12-24T08:53:09.867Z,79.11
2018-12-24T08:54:09.841Z,79.33
2018-12-24T08:55:09.839Z,79.33
2018-12-24T08:56:09.814Z,79.74
2018-12-24T08:57:09.804Z,79.64
2018-12-24T08:58:09.795Z,79.47
2018-12-24T08:59:09.794Z,79.15
2018-12-24T09:00:09.878Z,79.33
2018-12-24T09:01:09.774Z,79.78
2018-12-24T09:02:09.755Z,79.88
2018-12-24T09:03:09.740Z,79.22
2018-12-24T09:04:09.737Z,80.79
2018-12-24T09:05:09.760Z,80.47
2018-12-24T09:06:09.716Z,80.33
2018-12-24T09:07:09.701Z,80.68
2018-12-24T09:08:09.688Z,79.64
2018-12-24T09:09:09.678Z,78.49
2018-12-24T09:10:09.704Z,78.18
2018-12-24T09:11:09.659Z,78.28
2018-12-24T09:12:09.656Z,78.80
2018-12-24T09:13:09.634Z,78.39
2018-12-24T09:14:09.632Z,78.77
2018-12-24T09:15:09.690Z,79.71
2018-12-24T09:16:09.605Z,78.97
2018-12-24T09:17:09.701Z,78.77
2018-12-24T09:18:09.582Z,78.14
2018-12-24T09:19:09.591Z,78.14
2018-12-24T09:20:09.674Z,78.66
2018-12-24T09:21:09.558Z,79.60
2018-12-24T09:22:09.557Z,80.13
2018-12-24T09:23:09.534Z,80.54
2018-12-24T09:24:09.528Z,80.23
2018-12-24T09:25:09.512Z,81.16
2018-12-24T09:26:09.562Z,80.44
2018-12-24T09:27:09.492Z,80.96
2018-12-24T09:28:09.490Z,81.16
2018-12-24T09:29:09.468Z,81.16
2018-12-24T09:30:09.463Z,80.65
2018-12-24T09:31:09.482Z,79.71
2018-12-24T09:32:09.439Z,81.16
2018-12-24T09:33:09.431Z,81.59
2018-12-24T09:34:09.424Z,81.79
2018-12-24T09:35:09.402Z,80.68
2018-12-24T09:36:09.409Z,80.85
2018-12-24T09:37:09.391Z,81.90
2018-12-24T09:38:09.370Z,80.54
2018-12-24T09:39:09.365Z,80.75
2018-12-24T09:40:09.352Z,80.96
2018-12-24T09:41:09.374Z,81.16
2018-12-24T09:42:09.344Z,80.65
2018-12-24T09:43:09.325Z,80.54
2018-12-24T09:44:09.308Z,80.44
2018-12-24T09:45:09.306Z,80.65
2018-12-24T09:46:09.313Z,81.06
2018-12-24T09:47:09.286Z,80.75
2018-12-24T09:48:09.280Z,80.23
2018-12-24T09:49:09.262Z,80.37
2018-12-24T09:50:09.257Z,79.39
2018-12-24T09:51:09.261Z,79.60
2018-12-24T09:52:09.245Z,80.13
2018-12-24T09:53:09.220Z,78.56
2018-12-24T09:54:09.215Z,78.14
2018-12-24T09:55:09.196Z,78.66
2018-12-24T09:56:12.346Z,78.73
2018-12-24T09:57:09.179Z,78.73
2018-12-24T09:58:09.162Z,79.08
2018-12-24T09:59:09.147Z,79.71
2018-12-24T10:00:09.139Z,80.33
2018-12-24T10:01:09.162Z,79.50
2018-12-24T10:02:09.123Z,79.67
2018-12-24T10:03:09.113Z,79.98
2018-12-24T10:04:09.101Z,80.44
2018-12-24T10:05:09.089Z,80.40
2018-12-24T10:06:09.213Z,80.65
2018-12-24T10:07:09.063Z,80.23
2018-12-24T10:08:09.059Z,80.44
2018-12-24T10:09:09.055Z,80.23
2018-12-24T10:10:09.033Z,80.02
2018-12-24T10:11:09.052Z,80.96
2018-12-24T10:12:09.038Z,81.16
2018-12-24T10:13:09.007Z,79.71
2018-12-24T10:14:08.999Z,80.44
2018-12-24T10:15:08.986Z,80.44
2018-12-24T10:16:08.965Z,81.06
2018-12-24T10:17:08.977Z,80.44
2018-12-24T10:18:08.955Z,80.85
2018-12-24T10:19:08.939Z,80.85
2018-12-24T10:20:08.935Z,81.06
2018-12-24T10:21:08.927Z,80.82
2018-12-24T10:22:08.965Z,81.38
2018-12-24T10:23:08.903Z,81.38
2018-12-24T10:24:08.887Z,81.06
2018-12-24T10:25:08.884Z,80.44
2018-12-24T10:26:08.877Z,79.91
2018-12-24T10:27:08.882Z,80.02
2018-12-24T10:28:08.850Z,80.02
2018-12-24T10:29:08.838Z,80.23
2018-12-24T10:30:08.823Z,80.65
2018-12-24T10:31:08.815Z,80.54
2018-12-24T10:32:08.818Z,80.44
2018-12-24T10:33:08.793Z,81.16
2018-12-24T10:34:08.783Z,80.44
2018-12-24T10:35:08.787Z,80.33
2018-12-24T10:36:08.759Z,80.54
2018-12-24T10:37:08.776Z,80.85
2018-12-24T10:38:08.740Z,80.75
2018-12-24T10:39:08.727Z,81.59
2018-12-24T10:40:08.722Z,82.21
2018-12-24T10:41:08.716Z,82.21
2018-12-24T10:42:08.726Z,81.90
2018-12-24T10:43:08.693Z,81.59
2018-12-24T10:44:08.672Z,81.06
2018-12-24T10:45:16.258Z,80.65
2018-12-24T10:46:09.657Z,80.44
2018-12-24T10:47:08.668Z,80.09
2018-12-24T10:48:08.635Z,79.91
2018-12-24T10:49:08.634Z,79.46
2018-12-24T10:50:08.615Z,78.77
2018-12-24T10:51:08.599Z,78.35
2018-12-24T10:52:08.595Z,78.25
2018-12-24T10:53:08.611Z,78.87
2018-12-24T10:54:08.574Z,78.77
2018-12-24T10:55:08.569Z,78.45
2018-12-24T10:56:08.553Z,78.39
2018-12-24T10:57:08.539Z,78.35
2018-12-24T10:58:08.551Z,78.66
2018-12-24T10:59:08.515Z,78.77
2018-12-24T11:00:08.504Z,78.25
2018-12-24T11:01:08.505Z,78.80
2018-12-24T11:02:08.493Z,79.33
2018-12-24T11:03:08.501Z,80.05
2018-12-24T11:04:08.465Z,80.02
2018-12-24T11:05:08.454Z,79.39
2018-12-24T11:06:08.446Z,79.60
2018-12-24T11:07:08.443Z,78.14
2018-12-24T11:08:08.451Z,77.94
2018-12-24T11:09:08.422Z,78.25
2018-12-24T11:10:08.416Z,77.51
2018-12-24T11:11:08.395Z,77.31
2018-12-24T11:12:08.384Z,76.37
2018-12-24T11:13:08.389Z,76.68
2018-12-24T11:14:08.365Z,76.06
2018-12-24T11:15:08.347Z,75.85
2018-12-24T11:16:08.351Z,76.68
2018-12-24T11:17:08.329Z,76.06
2018-12-24T11:18:08.339Z,76.72
2018-12-24T11:19:08.303Z,77.20
2018-12-24T11:20:08.297Z,76.89
2018-12-24T11:21:08.289Z,76.79
2018-12-24T11:22:08.287Z,75.53
2018-12-24T11:23:08.307Z,75.63
2018-12-24T11:24:08.260Z,75.85
2018-12-24T11:25:08.243Z,76.26
2018-12-24T11:26:08.231Z,76.68
2018-12-24T11:27:08.227Z,76.57
2018-12-24T11:28:08.227Z,76.37
2018-12-24T11:29:08.207Z,76.26
2018-12-24T11:30:08.187Z,76.37
2018-12-24T11:31:08.183Z,76.26
2018-12-24T11:32:08.169Z,75.43
2018-12-24T11:33:08.195Z,75.32
2018-12-24T11:34:08.145Z,75.43
2018-12-24T11:35:08.142Z,74.98
2018-12-24T11:36:08.139Z,75.12
2018-12-24T11:37:08.117Z,74.28
2018-12-24T11:38:08.113Z,74.07
2018-12-24T11:39:08.115Z,74.60
2018-12-24T11:40:08.089Z,75.32
2018-12-24T11:41:08.077Z,75.32
2018-12-24T11:42:08.061Z,75.74
2018-12-24T11:43:08.065Z,75.32
2018-12-24T11:44:08.065Z,75.63
2018-12-24T11:45:08.045Z,76.37
2018-12-24T11:46:08.026Z,76.26
2018-12-24T11:47:08.015Z,76.23
2018-12-24T11:48:08.009Z,76.26
2018-12-24T11:49:08.007Z,76.26
2018-12-24T11:50:07.982Z,75.74
2018-12-24T11:51:07.975Z,75.85
2018-12-24T11:52:07.962Z,75.63
2018-12-24T11:53:07.972Z,75.74
2018-12-24T11:54:07.964Z,75.92
2018-12-24T11:55:09.548Z,75.12
2018-12-24T11:56:07.923Z,75.12
2018-12-24T11:57:07.912Z,74.07
2018-12-24T11:58:13.444Z,74.18
2018-12-24T11:59:08.897Z,74.28
2018-12-24T12:00:07.873Z,73.34
2018-12-24T12:01:07.862Z,73.31
2018-12-24T12:02:10.081Z,73.86
2018-12-24T12:03:07.862Z,74.60
2018-12-24T12:04:07.861Z,74.60
2018-12-24T12:05:07.834Z,75.01
2018-12-24T12:06:07.812Z,74.91
2018-12-24T12:07:07.799Z,75.01
2018-12-24T12:08:07.793Z,75.32
2018-12-24T12:09:07.803Z,74.15
2018-12-24T12:10:07.771Z,74.38
2018-12-24T12:11:07.796Z,74.60
2018-12-24T12:12:07.747Z,74.38
2018-12-24T12:13:07.739Z,74.38
2018-12-24T12:14:07.744Z,75.22
2018-12-24T12:15:07.714Z,75.74
2018-12-24T12:16:07.713Z,75.01
2018-12-24T12:17:07.701Z,74.46
2018-12-24T12:18:07.683Z,74.35
2018-12-24T12:19:07.700Z,74.66
2018-12-24T12:20:07.678Z,74.25
2018-12-24T12:21:07.669Z,75.12
2018-12-24T12:22:07.651Z,74.98
2018-12-24T12:23:07.633Z,73.83
2018-12-24T12:24:07.627Z,74.77
2018-12-24T12:25:07.639Z,74.35
2018-12-24T12:26:07.599Z,75.08
2018-12-24T12:27:07.602Z,74.77
2018-12-24T12:28:07.590Z,74.77
2018-12-24T12:29:07.567Z,74.35
2018-12-24T12:30:07.572Z,74.04
2018-12-24T12:31:07.554Z,74.25
2018-12-24T12:32:07.538Z,74.15
2018-12-24T12:33:07.535Z,74.77
2018-12-24T12:34:07.513Z,74.66
2018-12-24T12:35:07.526Z,74.42
2018-12-24T12:36:07.544Z,74.42
2018-12-24T12:37:07.487Z,74.07
2018-12-24T12:38:07.480Z,73.35
2018-12-24T12:39:07.463Z,73.03
2018-12-24T12:40:07.491Z,72.55
2018-12-24T12:41:07.441Z,72.65
2018-12-24T12:42:07.436Z,72.44
2018-12-24T12:43:07.431Z,72.75
2018-12-24T12:44:07.420Z,71.81
2018-12-24T12:45:07.424Z,72.16
2018-12-24T12:46:07.391Z,72.27
2018-12-24T12:47:07.379Z,73.10
2018-12-24T12:48:07.367Z,72.89
2018-12-24T12:49:07.359Z,72.65
2018-12-24T12:50:07.379Z,72.65
2018-12-24T12:51:07.346Z,72.86
2018-12-24T12:52:07.328Z,73.07